Marcos A. Gelabert International Airport
MPMG : now visible

Airfield :











YOU CAN JOIN US ON...

 
LOGIN :

Register | Disclaimer

   EN    FR    IT 

 









Legend :    VFR   Marginal VFR   IFR   Intensive IFR   Very Intensive IFR
Visi :
Ceiling :
>= 8 km
>= 3000ft
5 to 8 km
1000 to 3000 ft
1500m to 5 km
500 to 1000 ft
800 to 1500m
200 to 500 ft
< 800m
< 200 ft
Symbols :   Thunderstorms  Fog  Heavy snow  Heavy precipitations  Wind > 20 kt






- Airport Elevation : 31 ft
- IATA code : PAC


MPMG - Marcos A. Gelabert International

CURRENT METAR :
  • 122200Z 35011KT 9999 FEW016 SCT080 28/23 Q1008 NOSIG

EXPIRED METARs :
  • 122100Z 33011KT 300V360 9999 FEW016 SCT080 30/23 Q1008 NOSIG
  • 122000Z 36009KT 9999 FEW016TCU 30/23 Q1008 NOSIG

TAF TAF MPMG
Valid from the 12 at 18:00 until the 13 at 06:00 UTC


121700Z 1218/1306 36008KT 9999 FEW018
PROB30
TEMPO 1218/1220 7000 SHRA SCT018TCU
BECMG 1300/1304 CAVOK



MET'MAP, your aeronautical weather chart ! - Copyright ORBIFLY December 2007 - Disclaimer

ORBIFLY MET'MAP TEAM :

Programming & Development : Alexandra Zaïnal
Concept & original design : Baudouin d'Aumeries
Assistance for programming : Marc-Olivier Méhu
Technical & hardware support : Manuel Goepfert

Contact : metmap@orbifly.com




SOURCES & CREDITS :

   NOAA       Earth
Advisory